createdAt,value
2023-05-06T02:14:11.509Z,10.36
2023-05-06T02:25:11.829Z,10.12
2023-05-06T02:26:12.192Z,10.08
2023-05-06T02:28:59.856Z,10.07
2023-05-06T02:29:58.719Z,10.04
2023-05-06T02:30:58.459Z,9.93
2023-05-06T02:31:58.569Z,9.99
2023-05-06T02:32:59.193Z,10.01
2023-05-06T02:33:59.386Z,9.96
2023-05-06T02:35:09.084Z,10.08
2023-05-06T02:42:14.041Z,10.07
2023-05-06T02:43:13.900Z,9.99
2023-05-06T03:24:35.076Z,9.90
2023-05-06T03:28:08.024Z,10.02
2023-05-06T03:29:07.928Z,10.01
2023-05-06T03:30:08.096Z,10.08
2023-05-06T03:31:07.859Z,9.91
2023-05-06T03:32:07.780Z,9.97
2023-05-06T03:33:18.061Z,9.97
2023-05-06T03:34:07.805Z,9.89
2023-05-06T03:35:08.015Z,9.97
2023-05-06T03:36:07.734Z,9.91
2023-05-06T03:37:07.708Z,9.96
2023-05-06T03:39:44.563Z,9.97
2023-05-06T03:42:15.945Z,9.99
2023-05-06T03:43:14.988Z,9.97
2023-05-06T03:44:14.942Z,9.91
2023-05-06T03:45:14.931Z,9.83
2023-05-06T03:46:14.961Z,9.81
2023-05-06T03:47:14.877Z,9.94
2023-05-06T03:48:18.203Z,9.89
2023-05-06T03:49:14.897Z,9.84
2023-05-06T03:50:14.866Z,9.81
2023-05-06T03:51:14.843Z,9.87
2023-05-06T03:52:14.814Z,9.93
2023-05-06T03:53:14.825Z,10.07
2023-05-06T03:54:14.877Z,10.01
2023-05-06T03:55:14.825Z,9.89
2023-05-06T03:56:14.744Z,10.07
2023-05-06T03:57:14.732Z,10.08
2023-05-06T03:58:14.764Z,10.12
2023-05-06T03:59:14.720Z,10.09
2023-05-06T04:00:14.776Z,10.22
2023-05-06T04:01:14.733Z,10.11
2023-05-06T04:02:14.766Z,9.90
2023-05-06T04:03:14.730Z,10.01
2023-05-06T04:04:14.832Z,9.97
2023-05-06T04:05:14.698Z,10.05
2023-05-06T04:06:14.662Z,9.99
2023-05-06T04:07:14.658Z,10.09
2023-05-06T04:08:14.597Z,9.96
2023-05-06T04:09:14.611Z,9.93
2023-05-06T04:10:14.630Z,9.94
2023-05-06T04:11:14.631Z,9.81
2023-05-06T04:12:14.557Z,9.86
2023-05-06T04:13:14.613Z,9.97
2023-05-06T04:14:14.625Z,9.74
2023-05-06T04:15:14.535Z,9.78
2023-05-06T04:16:14.632Z,9.78
2023-05-06T04:17:14.478Z,9.79
2023-05-06T04:18:14.478Z,9.84
2023-05-06T04:19:14.499Z,9.79
2023-05-06T04:20:14.483Z,9.87
2023-05-06T04:21:14.456Z,9.89
2023-05-06T04:22:14.490Z,9.93
2023-05-06T04:23:14.407Z,9.78
2023-05-06T04:24:14.411Z,9.78
2023-05-06T04:25:14.486Z,9.87
2023-05-06T04:26:14.440Z,9.89
2023-05-06T04:27:14.493Z,9.93
2023-05-06T04:28:15.666Z,10.02
2023-05-06T04:29:15.524Z,10.09
2023-05-06T04:30:15.545Z,10.11
2023-05-06T04:31:15.581Z,10.02
2023-05-06T04:32:15.599Z,9.97
2023-05-06T04:33:15.513Z,10.02
2023-05-06T04:34:15.474Z,10.04
2023-05-06T04:35:15.535Z,10.02
2023-05-06T04:36:15.471Z,9.99
2023-05-06T04:37:15.440Z,10.05
2023-05-06T04:38:15.459Z,10.05
2023-05-06T04:39:15.456Z,10.07
2023-05-06T04:40:15.425Z,10.11
2023-05-06T04:41:16.299Z,10.12
2023-05-06T04:42:15.446Z,10.12
2023-05-06T04:43:15.440Z,10.23
2023-05-06T04:44:15.366Z,10.25
2023-05-06T04:45:15.336Z,10.30
2023-05-06T04:46:15.469Z,10.25
2023-05-06T04:47:15.349Z,10.33
2023-05-06T04:48:15.447Z,10.42
2023-05-06T04:49:15.304Z,10.40
2023-05-06T04:50:15.330Z,10.40
2023-05-06T04:51:15.290Z,10.30
2023-05-06T04:52:15.279Z,10.32
2023-05-06T04:53:15.261Z,10.32
2023-05-06T04:54:15.253Z,10.40
2023-05-06T04:55:15.216Z,10.45
2023-05-06T04:56:15.169Z,10.42
2023-05-06T04:57:15.220Z,10.27
2023-05-06T04:58:15.223Z,10.26
2023-05-06T04:59:15.225Z,10.33
2023-05-06T05:00:15.190Z,10.32
2023-05-06T05:01:15.209Z,10.30
2023-05-06T05:02:15.181Z,10.44
2023-05-06T05:03:15.236Z,10.55
2023-05-06T05:04:15.155Z,10.52
2023-05-06T05:05:15.179Z,10.64
2023-05-06T05:06:15.207Z,10.66
2023-05-06T05:07:15.117Z,10.68
2023-05-06T05:08:15.033Z,10.78
2023-05-06T05:09:15.059Z,10.79
2023-05-06T05:10:15.067Z,10.97
2023-05-06T05:11:15.004Z,11.10
2023-05-06T05:12:15.020Z,11.46
2023-05-06T05:13:15.082Z,12.23
2023-05-06T05:14:15.023Z,12.60
2023-05-06T05:15:14.997Z,12.93
2023-05-06T05:16:14.986Z,12.86
2023-05-06T05:17:15.017Z,12.87
2023-05-06T05:18:14.979Z,12.93
2023-05-06T05:19:14.955Z,13.10
2023-05-06T05:20:15.010Z,13.30
2023-05-06T05:21:14.921Z,13.78
2023-05-06T05:22:14.917Z,13.95
2023-05-06T05:23:14.880Z,14.10
2023-05-06T05:24:14.837Z,14.17
2023-05-06T05:25:15.219Z,14.29
2023-05-06T05:26:14.868Z,14.32
2023-05-06T05:27:14.844Z,14.32
2023-05-06T05:28:14.833Z,14.14
2023-05-06T05:29:14.767Z,14.45
2023-05-06T05:30:14.766Z,14.43
2023-05-06T05:31:14.875Z,14.22
2023-05-06T05:32:14.775Z,13.78
2023-05-06T05:33:14.863Z,13.14
2023-05-06T05:34:15.083Z,13.00
2023-05-06T05:35:14.733Z,12.97
2023-05-06T05:36:14.730Z,13.22
2023-05-06T05:37:14.726Z,13.81
2023-05-06T05:38:14.708Z,14.35
2023-05-06T05:39:14.708Z,14.65
2023-05-06T05:40:14.642Z,15.02
2023-05-06T05:41:16.123Z,15.20
2023-05-06T05:42:14.673Z,15.21
2023-05-06T05:43:14.644Z,15.34
2023-05-06T05:44:14.629Z,15.62
2023-05-06T05:45:14.600Z,15.59
2023-05-06T05:46:14.707Z,15.39
2023-05-06T05:47:15.615Z,15.53
2023-05-06T05:48:14.588Z,15.64
2023-05-06T05:49:14.523Z,16.04
2023-05-06T05:50:14.581Z,16.39
2023-05-06T05:51:14.569Z,17.22
2023-05-06T05:52:14.568Z,17.74
2023-05-06T05:53:14.513Z,17.51
2023-05-06T05:54:14.547Z,17.74
2023-05-06T05:55:14.496Z,17.62
2023-05-06T05:56:14.531Z,18.05
2023-05-06T05:57:14.493Z,18.29
2023-05-06T05:58:14.442Z,18.36
2023-05-06T05:59:14.501Z,17.81
2023-05-06T06:00:14.465Z,16.27
2023-05-06T06:01:14.503Z,16.28
2023-05-06T06:02:14.435Z,16.12
2023-05-06T06:03:14.508Z,15.94
2023-05-06T06:04:14.457Z,16.24
2023-05-06T06:05:14.405Z,16.81
2023-05-06T06:06:14.413Z,16.76
2023-05-06T06:07:14.431Z,16.94
2023-05-06T06:08:14.396Z,17.43
2023-05-06T06:09:14.339Z,17.96
2023-05-06T06:10:14.364Z,18.50
2023-05-06T06:11:14.451Z,18.03
2023-05-06T06:12:14.351Z,17.21
2023-05-06T06:13:14.303Z,16.88
2023-05-06T06:14:14.439Z,16.58
2023-05-06T06:15:14.295Z,16.28
2023-05-06T06:16:14.305Z,15.68
2023-05-06T06:17:14.352Z,15.60
2023-05-06T06:18:14.253Z,15.84
2023-05-06T06:19:14.288Z,15.74
2023-05-06T06:20:14.902Z,16.45
2023-05-06T06:21:14.220Z,16.93
2023-05-06T06:22:14.290Z,17.11
2023-05-06T06:23:14.187Z,15.89
2023-05-06T06:24:14.205Z,14.57
2023-05-06T06:25:14.177Z,14.36
2023-05-06T06:26:14.978Z,14.14
2023-05-06T06:27:14.198Z,14.94
2023-05-06T06:28:14.200Z,16.12
2023-05-06T06:29:14.743Z,16.85
2023-05-06T06:30:14.150Z,17.11
2023-05-06T06:31:14.093Z,16.85
2023-05-06T06:32:14.169Z,16.49
2023-05-06T06:33:14.088Z,16.12
2023-05-06T06:34:14.185Z,16.20
2023-05-06T06:35:14.060Z,16.79
2023-05-06T06:36:14.096Z,17.37
2023-05-06T06:37:14.081Z,17.37
2023-05-06T06:38:14.010Z,17.77
2023-05-06T06:39:14.038Z,18.26
2023-05-06T06:40:14.025Z,18.76
2023-05-06T06:41:13.992Z,18.47
2023-05-06T06:42:13.970Z,18.72
2023-05-06T06:43:13.972Z,18.58
2023-05-06T06:44:13.948Z,17.95
2023-05-06T06:45:14.071Z,18.07
2023-05-06T06:46:13.948Z,18.23
2023-05-06T06:47:13.964Z,18.73
2023-05-06T06:48:13.981Z,19.62
2023-05-06T06:49:13.919Z,19.61
2023-05-06T06:50:13.880Z,19.71
2023-05-06T06:51:14.002Z,20.05
2023-05-06T06:52:13.883Z,19.69
2023-05-06T06:53:13.880Z,19.61
2023-05-06T06:54:13.811Z,19.37
2023-05-06T06:55:13.824Z,19.40
2023-05-06T06:56:13.795Z,19.46
2023-05-06T06:57:13.910Z,19.71
2023-05-06T06:58:13.806Z,19.78
2023-05-06T06:59:13.777Z,19.69
2023-05-06T07:00:13.812Z,19.29
2023-05-06T07:01:13.818Z,18.87
2023-05-06T07:02:13.736Z,18.73
2023-05-06T07:03:13.703Z,18.47
2023-05-06T07:04:13.795Z,17.90
2023-05-06T07:05:13.712Z,17.89
2023-05-06T07:06:13.693Z,17.96
2023-05-06T07:07:13.770Z,18.00
2023-05-06T07:08:13.692Z,18.58
2023-05-06T07:09:13.724Z,18.92
2023-05-06T07:10:13.621Z,19.62
2023-05-06T07:11:13.620Z,19.84
2023-05-06T07:12:13.658Z,19.29
2023-05-06T07:13:13.689Z,17.99
2023-05-06T07:14:13.809Z,18.58
2023-05-06T07:15:13.786Z,18.87
2023-05-06T07:16:13.615Z,18.99
2023-05-06T07:17:13.661Z,19.31
2023-05-06T07:18:13.669Z,18.51
2023-05-06T07:19:13.558Z,18.25
2023-05-06T07:20:13.589Z,18.41
2023-05-06T07:21:13.515Z,18.75
2023-05-06T07:22:13.495Z,19.14
2023-05-06T07:23:13.650Z,19.74
2023-05-06T07:24:13.551Z,20.21
2023-05-06T07:25:13.581Z,20.61
2023-05-06T07:26:13.429Z,20.06
2023-05-06T07:27:13.429Z,19.65
2023-05-06T07:28:13.403Z,19.31
2023-05-06T07:29:13.452Z,19.46
2023-05-06T07:30:13.454Z,20.24
2023-05-06T07:31:13.420Z,19.44
2023-05-06T07:32:13.413Z,18.65
2023-05-06T07:33:13.384Z,18.80
2023-05-06T07:34:13.439Z,19.02
2023-05-06T07:35:13.827Z,18.51
2023-05-06T07:36:13.375Z,18.41
2023-05-06T07:37:13.311Z,18.55
2023-05-06T07:38:13.376Z,18.60
2023-05-06T07:39:13.413Z,19.11
2023-05-06T07:40:13.339Z,19.54
2023-05-06T07:41:13.303Z,19.68
2023-05-06T07:42:13.274Z,19.61
2023-05-06T07:43:13.246Z,19.62
2023-05-06T07:44:13.282Z,19.54
2023-05-06T07:45:13.357Z,19.32
2023-05-06T07:46:13.263Z,19.50
2023-05-06T07:47:13.265Z,19.44
2023-05-06T07:48:13.306Z,19.21
2023-05-06T07:49:13.253Z,18.60
2023-05-06T07:50:13.201Z,18.15
2023-05-06T07:51:13.166Z,17.56
2023-05-06T07:52:13.110Z,16.79
2023-05-06T07:53:13.156Z,15.96
2023-05-06T07:54:13.153Z,15.75
2023-05-06T07:55:13.466Z,15.69
2023-05-06T07:56:13.101Z,15.35
2023-05-06T07:57:13.139Z,15.17
2023-05-06T07:58:13.101Z,15.53
2023-05-06T07:59:13.097Z,15.46
2023-05-06T08:00:13.074Z,15.80
2023-05-06T08:01:13.100Z,15.92
2023-05-06T08:02:13.080Z,15.90
2023-05-06T08:03:13.211Z,15.51
2023-05-06T08:04:13.256Z,15.21
2023-05-06T08:05:13.237Z,15.13
2023-05-06T08:06:13.102Z,14.77
2023-05-06T08:07:13.052Z,14.72
2023-05-06T08:08:12.993Z,14.42
2023-05-06T08:09:19.753Z,14.52
2023-05-06T08:10:13.059Z,14.68
2023-05-06T08:11:13.017Z,14.69
2023-05-06T08:12:13.011Z,14.73
2023-05-06T08:13:12.918Z,14.84
2023-05-06T08:14:12.904Z,14.80
2023-05-06T08:15:13.168Z,14.86
2023-05-06T08:16:12.958Z,14.86
2023-05-06T08:17:12.904Z,15.03
2023-05-06T08:18:21.802Z,15.23
2023-05-06T08:19:13.052Z,15.46
2023-05-06T08:20:12.859Z,15.65
2023-05-06T08:21:12.880Z,15.67
2023-05-06T08:22:12.920Z,15.56
2023-05-06T08:23:12.858Z,15.36
2023-05-06T08:24:12.942Z,15.29
2023-05-06T08:25:13.056Z,15.21
2023-05-06T08:26:12.907Z,14.92
2023-05-06T08:27:12.943Z,14.94
2023-05-06T08:28:12.978Z,14.83
2023-05-06T08:29:12.745Z,14.95
2023-05-06T08:30:12.839Z,14.94
2023-05-06T08:31:12.697Z,15.13
2023-05-06T08:32:12.829Z,15.19
2023-05-06T08:33:12.731Z,15.51
2023-05-06T08:34:12.951Z,15.71
2023-05-06T08:35:12.982Z,15.93
2023-05-06T08:36:12.671Z,16.04
2023-05-06T08:37:12.725Z,15.94
2023-05-06T08:38:12.729Z,15.71
2023-05-06T08:39:12.622Z,15.36
2023-05-06T08:40:12.666Z,15.36
2023-05-06T08:41:12.586Z,15.67
2023-05-06T08:42:12.628Z,15.75
2023-05-06T08:43:12.715Z,15.75
2023-05-06T08:44:12.593Z,15.89
2023-05-06T08:45:12.701Z,15.83
2023-05-06T08:46:12.519Z,16.17
2023-05-06T08:47:12.659Z,16.33
2023-05-06T08:48:12.555Z,16.21
2023-05-06T08:49:12.567Z,16.53
2023-05-06T08:50:12.487Z,16.20
2023-05-06T08:51:12.498Z,16.20
2023-05-06T08:52:12.572Z,16.14
2023-05-06T08:53:12.434Z,16.07
2023-05-06T08:54:12.504Z,15.84
2023-05-06T08:55:12.728Z,15.69
2023-05-06T08:56:12.430Z,15.90
2023-05-06T08:57:12.650Z,15.71
2023-05-06T08:58:13.527Z,15.57
2023-05-06T08:59:12.493Z,15.39
2023-05-06T09:00:13.418Z,15.51
2023-05-06T09:01:12.405Z,15.67
2023-05-06T09:02:12.489Z,15.84
2023-05-06T09:03:12.398Z,15.80
2023-05-06T09:04:12.356Z,15.80
2023-05-06T09:05:12.739Z,15.76
2023-05-06T09:06:12.329Z,15.71
2023-05-06T09:07:12.383Z,15.67
2023-05-06T09:08:12.409Z,15.28
2023-05-06T09:09:12.380Z,15.39
2023-05-06T09:10:12.410Z,15.41
2023-05-06T09:11:12.229Z,15.56
2023-05-06T09:12:12.340Z,15.68
2023-05-06T09:13:12.257Z,15.72
2023-05-06T09:14:12.753Z,15.78
2023-05-06T09:15:12.718Z,16.25
2023-05-06T09:16:12.299Z,16.20
2023-05-06T09:17:12.202Z,16.11
2023-05-06T09:18:12.244Z,16.48
2023-05-06T09:19:12.292Z,16.57
2023-05-06T09:20:12.228Z,16.79
2023-05-06T09:21:12.170Z,17.00
2023-05-06T09:22:12.108Z,16.60
2023-05-06T09:23:12.711Z,16.17
2023-05-06T09:24:12.097Z,16.14
2023-05-06T09:25:12.436Z,16.25
2023-05-06T09:26:12.089Z,15.68
2023-05-06T09:27:13.825Z,15.90
2023-05-06T09:28:12.086Z,15.72
2023-05-06T09:29:12.054Z,15.50
2023-05-06T09:30:12.391Z,15.38
2023-05-06T09:31:12.081Z,15.49
2023-05-06T09:32:12.035Z,15.41
2023-05-06T09:33:12.177Z,15.36
2023-05-06T09:34:12.049Z,15.51
2023-05-06T09:35:12.136Z,15.60
2023-05-06T09:36:12.074Z,16.05
2023-05-06T09:37:12.078Z,16.09
2023-05-06T09:38:12.060Z,15.90
2023-05-06T09:39:11.960Z,15.86
2023-05-06T09:40:12.011Z,15.82
2023-05-06T09:41:12.074Z,15.78
2023-05-06T09:42:11.975Z,15.76
2023-05-06T09:43:11.938Z,16.21
2023-05-06T09:44:11.908Z,16.34
2023-05-06T09:45:12.312Z,16.79
2023-05-06T09:46:11.988Z,16.63
2023-05-06T09:47:12.257Z,16.60
2023-05-06T09:48:11.926Z,16.53
2023-05-06T09:49:11.949Z,16.57
2023-05-06T09:50:13.578Z,16.14
2023-05-06T09:51:12.014Z,16.12
2023-05-06T09:52:11.918Z,16.41
2023-05-06T09:53:11.848Z,16.98
2023-05-06T09:54:12.997Z,17.48
2023-05-06T09:55:11.837Z,17.75
2023-05-06T09:56:12.834Z,17.97
2023-05-06T09:57:13.529Z,17.84
2023-05-06T09:58:15.249Z,17.63
2023-05-06T09:59:11.712Z,17.37
2023-05-06T10:00:11.755Z,17.26
2023-05-06T10:01:15.044Z,17.30
2023-05-06T10:02:11.835Z,17.18
2023-05-06T10:03:11.910Z,17.26
2023-05-06T10:04:11.836Z,17.48
2023-05-06T10:05:13.070Z,17.44
2023-05-06T10:06:11.772Z,17.72
2023-05-06T10:07:12.109Z,17.43
2023-05-06T10:08:12.614Z,17.38
2023-05-06T10:09:11.555Z,17.23
2023-05-06T10:10:11.638Z,16.50
2023-05-06T10:11:11.622Z,16.33
2023-05-06T10:12:11.652Z,16.33
2023-05-06T10:13:11.671Z,16.78
2023-05-06T10:14:12.717Z,17.12
2023-05-06T10:15:12.676Z,17.31
2023-05-06T10:16:12.833Z,17.51
2023-05-06T10:17:11.478Z,17.18
2023-05-06T10:18:11.373Z,17.11
2023-05-06T10:19:11.710Z,17.19
2023-05-06T10:20:11.365Z,17.11
2023-05-06T10:21:11.337Z,17.00
2023-05-06T10:22:11.326Z,17.04
2023-05-06T10:23:11.617Z,17.06
2023-05-06T10:33:27.602Z,15.78
2023-05-06T10:34:27.108Z,16.15
2023-05-06T10:35:27.014Z,16.48
2023-05-06T10:36:26.997Z,16.82
2023-05-06T10:37:27.008Z,17.21
2023-05-06T10:38:26.926Z,16.91
2023-05-06T10:39:26.916Z,17.06
2023-05-06T10:40:26.884Z,17.55
2023-05-06T10:41:26.937Z,17.43
2023-05-06T10:42:26.914Z,17.36
2023-05-06T10:43:26.893Z,17.16
2023-05-06T10:44:26.832Z,17.86
2023-05-06T10:45:26.870Z,18.57
2023-05-06T10:46:26.839Z,18.87
2023-05-06T10:47:26.830Z,18.60
2023-05-06T10:48:26.851Z,18.69
2023-05-06T10:49:27.927Z,19.08
2023-05-06T10:50:27.906Z,19.51
2023-05-06T10:51:27.942Z,19.54
2023-05-06T10:52:28.125Z,19.40
2023-05-06T10:53:27.928Z,18.63
2023-05-06T10:54:27.855Z,18.63
2023-05-06T10:55:27.808Z,19.25
2023-05-06T10:56:28.824Z,19.54
2023-05-06T10:57:27.772Z,19.68
2023-05-06T10:58:27.782Z,19.39
2023-05-06T10:59:27.797Z,19.06
2023-05-06T11:00:27.845Z,18.99
2023-05-06T11:01:27.763Z,18.90
2023-05-06T11:02:27.781Z,19.00
2023-05-06T11:03:27.866Z,19.11
2023-05-06T11:04:27.753Z,18.78
2023-05-06T11:05:27.702Z,18.66
2023-05-06T11:06:27.739Z,18.15
2023-05-06T11:07:27.664Z,17.93
2023-05-06T11:08:27.653Z,17.96
2023-05-06T11:09:27.713Z,18.17
2023-05-06T11:10:27.628Z,18.62
2023-05-06T11:11:27.678Z,18.72
2023-05-06T11:12:27.615Z,18.65
2023-05-06T11:13:27.907Z,18.80
2023-05-06T11:14:27.786Z,18.91
2023-05-06T11:15:27.606Z,19.04
2023-05-06T11:16:27.777Z,19.28
2023-05-06T11:17:27.646Z,19.39
2023-05-06T11:18:27.661Z,19.50
2023-05-06T11:19:27.550Z,19.25
2023-05-06T11:20:27.530Z,19.47
2023-05-06T11:21:28.371Z,19.47
2023-05-06T11:22:27.676Z,19.58
2023-05-06T11:23:27.514Z,19.43
2023-05-06T11:24:27.498Z,19.39
2023-05-06T11:25:27.544Z,19.36
2023-05-06T11:26:27.522Z,19.19
2023-05-06T11:27:27.507Z,18.80
2023-05-06T11:28:28.455Z,18.72
2023-05-06T11:29:27.435Z,18.45
2023-05-06T11:30:27.447Z,18.11
2023-05-06T11:31:27.412Z,18.15
2023-05-06T11:32:27.404Z,18.21
2023-05-06T11:33:27.373Z,18.08
2023-05-06T11:34:27.378Z,17.81
2023-05-06T11:35:27.342Z,17.78
2023-05-06T11:36:27.314Z,17.62
2023-05-06T11:37:27.393Z,17.71
2023-05-06T11:38:27.431Z,18.10
2023-05-06T11:39:27.318Z,18.32
2023-05-06T11:40:27.443Z,18.35
2023-05-06T11:41:27.293Z,18.33
2023-05-06T11:42:27.327Z,18.57
2023-05-06T11:43:27.224Z,18.72
2023-05-06T11:44:27.276Z,18.67
2023-05-06T11:45:27.313Z,18.10
2023-05-06T11:46:27.217Z,17.84
2023-05-06T11:47:27.217Z,17.92
2023-05-06T11:48:27.225Z,18.26
2023-05-06T11:49:27.161Z,18.36
2023-05-06T11:50:27.156Z,18.85
2023-05-06T11:51:27.528Z,19.11
2023-05-06T11:52:27.137Z,19.08
2023-05-06T11:53:27.103Z,18.73
2023-05-06T11:54:27.134Z,18.32
2023-05-06T11:55:27.099Z,18.51
2023-05-06T11:56:27.098Z,18.69
2023-05-06T11:57:27.055Z,18.80
2023-05-06T11:58:27.035Z,19.00
2023-05-06T11:59:27.025Z,18.42
2023-05-06T12:00:27.050Z,18.47
2023-05-06T12:01:27.020Z,18.70
2023-05-06T12:02:27.093Z,19.02
2023-05-06T12:03:27.171Z,19.18
2023-05-06T12:04:27.029Z,19.00
2023-05-06T12:05:27.242Z,19.14
2023-05-06T12:06:26.961Z,19.32
2023-05-06T12:07:26.944Z,19.50
2023-05-06T12:08:30.492Z,19.18
2023-05-06T12:09:26.905Z,19.28
2023-05-06T12:10:41.639Z,19.51
2023-05-06T12:11:26.908Z,19.43
2023-05-06T12:12:28.320Z,19.41
2023-05-06T12:13:29.480Z,19.37
2023-05-06T12:14:27.687Z,19.39
2023-05-06T12:15:29.348Z,19.44
2023-05-06T12:16:27.019Z,19.41
2023-05-06T12:17:26.874Z,19.41
2023-05-06T12:18:27.614Z,19.61
2023-05-06T12:19:26.796Z,19.62
2023-05-06T12:20:26.793Z,19.51
2023-05-06T12:21:27.877Z,18.95
2023-05-06T12:22:29.510Z,18.21
2023-05-06T12:23:29.609Z,17.86
2023-05-06T12:24:26.734Z,17.72
2023-05-06T12:25:27.601Z,17.74
2023-05-06T12:26:26.761Z,17.62
2023-05-06T12:27:26.747Z,17.43
2023-05-06T12:28:26.701Z,17.41
2023-05-06T12:29:26.699Z,17.26
2023-05-06T12:30:26.671Z,17.33
2023-05-06T12:31:27.435Z,17.49
2023-05-06T12:32:27.203Z,17.33
2023-05-06T12:34:01.928Z,17.16
2023-05-06T12:34:29.217Z,17.19
2023-05-06T12:35:27.297Z,17.25
2023-05-06T12:36:29.435Z,17.30
2023-05-06T12:37:28.088Z,17.33
2023-05-06T12:38:26.563Z,17.34
2023-05-06T12:39:26.644Z,17.34
2023-05-06T12:40:26.564Z,17.33
2023-05-06T12:41:26.565Z,17.37
2023-05-06T12:42:27.308Z,17.26
2023-05-06T12:43:26.484Z,17.54
2023-05-06T12:44:28.566Z,17.54
2023-05-06T12:45:26.604Z,17.64
2023-05-06T12:46:28.286Z,17.54
2023-05-06T12:47:27.036Z,17.70
2023-05-06T12:48:26.612Z,17.97
2023-05-06T12:49:26.823Z,18.00
2023-05-06T12:50:27.697Z,18.00
2023-05-06T12:51:26.401Z,17.92
2023-05-06T12:52:26.430Z,17.92
2023-05-06T12:53:26.340Z,17.77
2023-05-06T12:54:26.591Z,17.52
2023-05-06T12:55:26.392Z,17.48
2023-05-06T12:56:26.869Z,17.41
2023-05-06T12:57:26.377Z,17.55
2023-05-06T12:58:26.326Z,17.49
2023-05-06T12:59:26.293Z,17.52
2023-05-06T13:00:33.695Z,17.74
2023-05-06T13:01:32.622Z,17.75
2023-05-06T13:02:28.139Z,17.92
2023-05-06T13:03:26.310Z,17.96
2023-05-06T13:04:28.355Z,18.18
2023-05-06T13:05:26.372Z,18.12
2023-05-06T13:06:26.209Z,18.11
2023-05-06T13:07:27.001Z,18.23
2023-05-06T13:08:26.221Z,18.07
2023-05-06T13:09:37.253Z,17.86
2023-05-06T13:10:26.173Z,17.89
2023-05-06T13:11:26.576Z,18.08
2023-05-06T13:12:26.145Z,17.93
2023-05-06T13:13:26.198Z,17.77
2023-05-06T13:14:26.140Z,17.82
2023-05-06T13:15:26.098Z,17.64
2023-05-06T13:16:27.563Z,17.49
2023-05-06T13:17:26.098Z,17.54
2023-05-06T13:18:26.086Z,17.62
2023-05-06T13:20:26.467Z,17.74
2023-05-06T13:21:26.022Z,17.81
2023-05-06T13:22:26.076Z,17.84
2023-05-06T13:23:25.976Z,17.79
2023-05-06T13:24:26.359Z,17.79
2023-05-06T13:25:26.303Z,17.68
2023-05-06T13:26:25.938Z,17.43
2023-05-06T13:27:25.954Z,17.28
2023-05-06T13:28:25.882Z,17.54
2023-05-06T13:29:25.975Z,17.68
2023-05-06T13:30:25.926Z,17.71
2023-05-06T13:31:25.908Z,17.79
2023-05-06T13:32:25.893Z,18.00
2023-05-06T13:33:26.057Z,18.18
2023-05-06T13:34:26.032Z,18.25
2023-05-06T13:35:26.051Z,18.29
2023-05-06T13:36:25.824Z,18.55
2023-05-06T13:37:25.836Z,18.62
2023-05-06T13:38:25.822Z,18.10
2023-05-06T13:39:25.889Z,17.93
2023-05-06T13:40:26.035Z,17.93
2023-05-06T13:41:25.782Z,17.96
2023-05-06T13:42:25.744Z,17.86
2023-05-06T13:43:26.752Z,18.08
2023-05-06T13:44:25.708Z,18.20
2023-05-06T13:45:25.703Z,18.23
2023-05-06T13:46:25.799Z,18.35
2023-05-06T13:47:25.657Z,18.05
2023-05-06T13:48:25.675Z,18.05
2023-05-06T13:49:25.655Z,18.26
2023-05-06T13:50:25.641Z,18.58
2023-05-06T13:51:25.643Z,18.69
2023-05-06T13:52:25.626Z,18.52
2023-05-06T13:53:25.680Z,18.75
2023-05-06T13:54:25.644Z,18.72
2023-05-06T13:55:25.637Z,19.02
2023-05-06T13:56:28.734Z,19.32
2023-05-06T13:57:25.592Z,19.50
2023-05-06T13:58:25.934Z,19.80
2023-05-06T13:59:26.595Z,20.10
2023-05-06T14:00:25.507Z,20.26
2023-05-06T14:01:25.569Z,19.61
2023-05-06T14:02:25.986Z,19.59
2023-05-06T14:03:25.506Z,19.46
2023-05-06T14:04:25.572Z,19.04
2023-05-06T14:05:25.743Z,19.08
2023-05-06T14:06:26.310Z,19.08
2023-05-06T14:07:25.505Z,18.87
2023-05-06T14:08:25.408Z,18.91
2023-05-06T14:09:26.446Z,18.76
2023-05-06T14:10:25.399Z,18.75
2023-05-06T14:11:25.351Z,18.94
2023-05-06T14:12:25.400Z,19.02
2023-05-06T14:13:25.359Z,19.08
2023-05-06T14:14:25.356Z,18.72
2023-05-06T14:15:26.159Z,18.70
2023-05-06T14:16:25.383Z,19.04
2023-05-06T14:17:25.391Z,19.07
2023-05-06T14:18:26.589Z,18.78
2023-05-06T14:19:25.704Z,18.82
2023-05-06T14:20:26.328Z,18.99
2023-05-06T14:21:25.232Z,18.98
2023-05-06T14:22:25.308Z,19.18
2023-05-06T14:23:25.244Z,19.18
2023-05-06T14:24:25.293Z,19.23
2023-05-06T14:25:25.184Z,19.28
2023-05-06T14:26:25.182Z,19.41
2023-05-06T14:27:25.176Z,19.61
2023-05-06T14:28:25.175Z,19.63
2023-05-06T14:29:25.195Z,19.69
2023-05-06T14:30:25.143Z,20.10
2023-05-06T14:31:25.172Z,20.42
2023-05-06T14:32:25.284Z,20.77
2023-05-06T14:33:25.164Z,20.95
2023-05-06T14:34:25.127Z,21.25
2023-05-06T14:35:25.080Z,21.34
2023-05-06T14:36:26.046Z,21.43
2023-05-06T14:37:25.089Z,21.74
2023-05-06T14:38:25.081Z,21.37
2023-05-06T14:39:25.048Z,21.35
2023-05-06T14:40:25.017Z,21.46
2023-05-06T14:41:28.107Z,21.37
2023-05-06T14:42:25.011Z,20.61
2023-05-06T14:43:24.957Z,19.76
2023-05-06T14:44:25.001Z,19.65
2023-05-06T14:45:25.014Z,19.56
2023-05-06T14:46:26.496Z,19.71
2023-05-06T14:47:24.987Z,19.76
2023-05-06T14:48:24.900Z,19.98
2023-05-06T14:49:24.906Z,19.98
2023-05-06T14:50:24.935Z,19.74
2023-05-06T14:51:24.865Z,19.47
2023-05-06T14:52:24.846Z,19.41
2023-05-06T14:53:24.859Z,19.19
2023-05-06T14:54:24.817Z,19.32
2023-05-06T14:55:24.883Z,18.98
2023-05-06T14:56:26.378Z,19.04
2023-05-06T14:57:24.810Z,19.33
2023-05-06T14:58:24.787Z,19.47
2023-05-06T14:59:24.768Z,19.59
2023-05-06T15:00:24.823Z,19.51
2023-05-06T15:01:24.794Z,19.65
2023-05-06T15:02:24.714Z,19.84
2023-05-06T15:03:24.792Z,20.05
2023-05-06T15:04:24.740Z,20.20
2023-05-06T15:05:24.761Z,20.28
2023-05-06T15:06:24.721Z,20.13
2023-05-06T15:07:24.699Z,19.81
2023-05-06T15:08:24.660Z,19.40
2023-05-06T15:09:24.623Z,19.32
2023-05-06T15:10:24.665Z,19.63
2023-05-06T15:11:24.669Z,19.66
2023-05-06T15:12:24.589Z,19.51
2023-05-06T15:13:24.689Z,19.41
2023-05-06T15:14:24.605Z,19.62
2023-05-06T15:15:24.607Z,19.77
2023-05-06T15:16:30.960Z,19.96
2023-05-06T15:18:08.576Z,20.14
2023-05-06T15:18:37.452Z,20.42
2023-05-06T15:19:29.284Z,20.57
2023-05-06T15:20:24.648Z,20.39
2023-05-06T15:21:28.437Z,20.50
2023-05-06T15:22:32.656Z,20.17
2023-05-06T15:23:30.747Z,19.71
2023-05-06T15:37:48.350Z,20.05
2023-05-06T15:38:48.370Z,19.95
2023-05-06T15:39:48.230Z,19.98
2023-05-06T15:40:48.233Z,19.66
2023-05-06T15:41:48.273Z,19.37
2023-05-06T15:42:48.232Z,19.37
2023-05-06T15:43:48.112Z,19.08
2023-05-06T15:44:48.141Z,19.11
2023-05-06T15:45:48.113Z,19.18
2023-05-06T15:46:48.096Z,19.18
2023-05-06T15:47:48.303Z,19.21
2023-05-06T15:48:51.966Z,19.26
2023-05-06T15:49:52.902Z,19.37
2023-05-06T15:50:48.015Z,19.51
2023-05-06T15:51:48.017Z,19.43
2023-05-06T15:52:47.994Z,19.51
2023-05-06T15:53:48.062Z,19.66
2023-05-06T15:54:49.982Z,19.65
2023-05-06T15:55:56.634Z,19.71
2023-05-06T15:56:47.936Z,19.54
2023-05-06T15:57:49.062Z,19.59
2023-05-06T15:58:49.134Z,19.50
2023-05-06T15:59:49.037Z,19.47
2023-05-06T16:00:49.025Z,19.41
2023-05-06T16:02:50.181Z,19.61
2023-05-06T16:03:49.219Z,19.46
2023-05-06T16:04:49.177Z,19.13
2023-05-06T16:05:48.978Z,18.98
2023-05-06T16:06:49.020Z,18.82
2023-05-06T16:07:48.929Z,18.76
2023-05-06T16:08:48.993Z,18.72
2023-05-06T16:09:48.992Z,18.75
2023-05-06T16:10:48.913Z,18.82
2023-05-06T16:11:48.891Z,18.76
2023-05-06T16:12:48.894Z,18.76
2023-05-06T16:13:48.857Z,18.60
2023-05-06T16:14:48.877Z,18.58
2023-05-06T16:15:49.590Z,18.51
2023-05-06T16:16:48.805Z,18.52
2023-05-06T16:17:48.808Z,18.47
2023-05-06T16:18:48.800Z,18.39
2023-05-06T16:19:48.929Z,18.47
2023-05-06T16:20:48.809Z,18.62
2023-05-06T16:21:49.350Z,18.51
2023-05-06T16:22:48.725Z,18.35
2023-05-06T16:23:48.718Z,18.37
2023-05-06T16:24:48.729Z,18.27
2023-05-06T16:25:49.073Z,18.10
2023-05-06T16:26:48.685Z,18.08
2023-05-06T16:27:48.699Z,17.99
2023-05-06T16:28:48.686Z,18.00
2023-05-06T16:29:48.677Z,18.03
2023-05-06T16:30:48.666Z,17.99
2023-05-06T16:31:48.700Z,18.10
2023-05-06T16:32:48.669Z,17.96
2023-05-06T16:33:49.448Z,17.92
2023-05-06T16:34:48.693Z,17.92
2023-05-06T16:35:48.613Z,17.95
2023-05-06T16:36:48.609Z,18.02